createdAt,value
2018-08-13T00:00:31.862Z,1002.3
2018-08-13T00:01:33.951Z,1002.3
2018-08-13T00:02:36.050Z,1002.3
2018-08-13T00:03:38.136Z,1002.3
2018-08-13T00:04:40.232Z,1002.3
2018-08-13T00:05:42.337Z,1002.3
2018-08-13T00:06:44.428Z,1002.3
2018-08-13T00:07:46.805Z,1002.3
2018-08-13T00:08:48.906Z,1002.3
2018-08-13T00:09:51.284Z,1002.3
2018-08-13T00:10:53.370Z,1002.3
2018-08-13T00:11:55.473Z,1002.3
2018-08-13T00:12:57.555Z,1002.3
2018-08-13T00:13:59.655Z,1002.3
2018-08-13T00:15:01.763Z,1002.3
2018-08-13T00:16:04.259Z,1002.3
2018-08-13T00:17:06.347Z,1002.3
2018-08-13T00:18:08.733Z,1002.3
2018-08-13T00:19:11.215Z,1002.3
2018-08-13T00:20:13.302Z,1002.2
2018-08-13T00:21:15.411Z,1002.2
2018-08-13T00:22:17.786Z,1002.2
2018-08-13T00:23:19.880Z,1002.2
2018-08-13T00:24:22.260Z,1002.2
2018-08-13T00:25:24.365Z,1002.2
2018-08-13T00:26:26.454Z,1002.2
2018-08-13T00:27:28.560Z,1002.2
2018-08-13T00:28:30.667Z,1002.2
2018-08-13T00:29:33.342Z,1002.1
2018-08-13T00:30:35.841Z,1002.2
2018-08-13T00:31:37.928Z,1002.2
2018-08-13T00:32:40.015Z,1002.2
2018-08-13T00:33:42.107Z,1002.2
2018-08-13T00:34:44.223Z,1002.2
2018-08-13T00:35:46.317Z,1002.2
2018-08-13T00:36:48.705Z,1002.2
2018-08-13T00:37:50.802Z,1002.1
2018-08-13T00:38:52.885Z,1002.2
2018-08-13T00:39:54.977Z,1002.1
2018-08-13T00:40:57.077Z,1002.1
2018-08-13T00:41:59.162Z,1002.1
2018-08-13T00:43:01.649Z,1002.1
2018-08-13T00:44:04.136Z,1002.1
2018-08-13T00:45:06.921Z,1002.1
2018-08-13T00:46:09.030Z,1002.1
2018-08-13T00:47:11.119Z,1002.1
2018-08-13T00:48:13.530Z,1002.1
2018-08-13T00:49:15.907Z,1002.1
2018-08-13T00:50:18.014Z,1002.1
2018-08-13T00:51:20.102Z,1002.1
2018-08-13T00:52:22.507Z,1002.1
2018-08-13T00:53:25.216Z,1002
2018-08-13T00:54:27.301Z,1002.1
2018-08-13T00:55:29.403Z,1002
2018-08-13T00:56:31.910Z,1002
2018-08-13T00:57:34.010Z,1002
2018-08-13T00:58:36.374Z,1002
2018-08-13T00:59:38.480Z,1002
2018-08-13T01:00:40.568Z,1001.9
2018-08-13T01:01:42.658Z,1001.9
2018-08-13T01:02:45.058Z,1001.9
2018-08-13T01:03:47.146Z,1001.9
2018-08-13T01:04:49.828Z,1001.9
2018-08-13T01:05:51.933Z,1001.9
2018-08-13T01:06:54.028Z,1001.9
2018-08-13T01:07:56.502Z,1001.8
2018-08-13T01:08:59.283Z,1001.8
2018-08-13T01:10:01.368Z,1001.9
2018-08-13T01:11:03.460Z,1001.8
2018-08-13T01:12:05.566Z,1001.8
2018-08-13T01:13:07.661Z,1001.9
2018-08-13T01:14:09.766Z,1001.8
2018-08-13T01:15:12.171Z,1001.8
2018-08-13T01:16:14.273Z,1001.8
2018-08-13T01:17:16.373Z,1001.8
2018-08-13T01:18:18.464Z,1001.8
2018-08-13T01:19:20.567Z,1001.8
2018-08-13T01:20:22.656Z,1001.8
2018-08-13T01:21:25.145Z,1001.8
2018-08-13T01:22:27.517Z,1001.7
2018-08-13T01:23:29.621Z,1001.7
2018-08-13T01:24:31.708Z,1001.7
2018-08-13T01:25:33.812Z,1001.7
2018-08-13T01:26:35.915Z,1001.7
2018-08-13T01:27:38.000Z,1001.7
2018-08-13T01:28:40.390Z,1001.7
2018-08-13T01:29:42.484Z,1001.7
2018-08-13T01:30:44.587Z,1001.6
2018-08-13T01:31:46.672Z,1001.7
2018-08-13T01:32:48.780Z,1001.6
2018-08-13T01:33:51.159Z,1001.7
2018-08-13T01:34:53.249Z,1001.6
2018-08-13T01:35:55.668Z,1001.6
2018-08-13T01:36:58.042Z,1001.6
2018-08-13T01:38:00.143Z,1001.5
2018-08-13T01:39:02.847Z,1001.5
2018-08-13T01:40:04.942Z,1001.5
2018-08-13T01:41:07.032Z,1001.5
2018-08-13T01:42:09.709Z,1001.5
2018-08-13T01:43:11.799Z,1001.5
2018-08-13T01:44:13.897Z,1001.5
2018-08-13T01:45:16.294Z,1001.5
2018-08-13T01:46:18.675Z,1001.4
2018-08-13T01:47:20.760Z,1001.4
2018-08-13T01:48:22.861Z,1001.4
2018-08-13T01:49:24.952Z,1001.4
2018-08-13T01:50:27.039Z,1001.4
2018-08-13T01:51:29.426Z,1001.4
2018-08-13T01:52:31.533Z,1001.4
2018-08-13T01:53:33.619Z,1001.4
2018-08-13T01:54:35.711Z,1001.4
2018-08-13T01:55:38.078Z,1001.3
2018-08-13T01:56:40.183Z,1001.3
2018-08-13T01:57:42.562Z,1001.4
2018-08-13T01:58:44.657Z,1001.3
2018-08-13T01:59:46.760Z,1001.3
2018-08-13T02:00:48.839Z,1001.3
2018-08-13T02:01:51.043Z,1001.3
2018-08-13T02:02:53.999Z,1001.3
2018-08-13T02:03:56.098Z,1001.3
2018-08-13T02:04:58.181Z,1001.3
2018-08-13T02:06:00.280Z,1001.3
2018-08-13T02:07:02.369Z,1001.3
2018-08-13T02:08:04.462Z,1001.3
2018-08-13T02:09:06.562Z,1001.3
2018-08-13T02:10:08.646Z,1001.3
2018-08-13T02:11:10.749Z,1001.3
2018-08-13T02:12:13.140Z,1001.3
2018-08-13T02:13:15.236Z,1001.3
2018-08-13T02:14:17.324Z,1001.3
2018-08-13T02:15:19.421Z,1001.3
2018-08-13T02:16:21.797Z,1001.3
2018-08-13T02:17:23.889Z,1001.3
2018-08-13T02:18:25.995Z,1001.3
2018-08-13T02:19:28.085Z,1001.3
2018-08-13T02:20:30.172Z,1001.3
2018-08-13T02:21:32.275Z,1001.3
2018-08-13T02:22:34.363Z,1001.3
2018-08-13T02:23:36.450Z,1001.3
2018-08-13T02:24:38.550Z,1001.3
2018-08-13T02:25:41.022Z,1001.3
2018-08-13T02:26:43.123Z,1001.3
2018-08-13T02:27:45.215Z,1001.3
2018-08-13T02:28:47.317Z,1001.2
2018-08-13T02:29:49.412Z,1001.2
2018-08-13T02:30:51.506Z,1001.2
2018-08-13T02:31:53.594Z,1001.2
2018-08-13T02:32:55.998Z,1001.2
2018-08-13T02:33:58.867Z,1001.2
2018-08-13T02:35:00.966Z,1001.2
2018-08-13T02:36:03.065Z,1001.3
2018-08-13T02:37:05.166Z,1001.2
2018-08-13T02:38:07.259Z,1001.2
2018-08-13T02:39:09.750Z,1001.2
2018-08-13T02:40:12.645Z,1001.2
2018-08-13T02:41:14.739Z,1001.2
2018-08-13T02:42:17.139Z,1001.2
2018-08-13T02:43:19.523Z,1001.1
2018-08-13T02:44:21.618Z,1001.2
2018-08-13T02:45:24.110Z,1001.2
2018-08-13T02:46:26.204Z,1001.1
2018-08-13T02:47:28.583Z,1001.2
2018-08-13T02:48:30.683Z,1001.2
2018-08-13T02:49:32.771Z,1001.1
2018-08-13T02:50:35.255Z,1001
2018-08-13T02:51:37.365Z,1001
2018-08-13T02:52:39.750Z,1001
2018-08-13T02:53:42.137Z,1001
2018-08-13T02:54:44.936Z,1001
2018-08-13T02:55:47.319Z,1001
2018-08-13T02:56:49.808Z,1001
2018-08-13T02:57:51.906Z,1000.9
2018-08-13T02:58:54.001Z,1001
2018-08-13T02:59:56.384Z,1000.9
2018-08-13T03:00:58.479Z,1000.9
2018-08-13T03:02:01.268Z,1000.9
2018-08-13T03:03:03.349Z,1000.9
2018-08-13T03:04:05.456Z,1000.9
2018-08-13T03:05:07.565Z,1000.9
2018-08-13T03:06:09.656Z,1000.9
2018-08-13T03:07:12.054Z,1000.9
2018-08-13T03:08:14.141Z,1000.8
2018-08-13T03:09:16.239Z,1000.8
2018-08-13T03:10:18.724Z,1000.8
2018-08-13T03:11:21.136Z,1000.8
2018-08-13T03:12:23.232Z,1000.8
2018-08-13T03:13:25.718Z,1000.8
2018-08-13T03:14:28.110Z,1000.8
2018-08-13T03:15:30.499Z,1000.8
2018-08-13T03:16:33.591Z,1000.8
2018-08-13T03:17:35.683Z,1000.8
2018-08-13T03:18:38.080Z,1000.7
2018-08-13T03:19:40.179Z,1000.7
2018-08-13T03:20:42.287Z,1000.7
2018-08-13T03:21:44.668Z,1000.7
2018-08-13T03:22:47.191Z,1000.7
2018-08-13T03:23:49.869Z,1000.7
2018-08-13T03:24:51.951Z,1000.6
2018-08-13T03:25:54.432Z,1000.6
2018-08-13T03:26:56.534Z,1000.5
2018-08-13T03:27:58.914Z,1000.6
2018-08-13T03:29:01.013Z,1000.6
2018-08-13T03:30:03.115Z,1000.6
2018-08-13T03:31:05.790Z,1000.6
2018-08-13T03:32:08.578Z,1000.6
2018-08-13T03:33:11.347Z,1000.6
2018-08-13T03:34:13.728Z,1000.6
2018-08-13T03:35:16.197Z,1000.6
2018-08-13T03:36:18.688Z,1000.6
2018-08-13T03:37:20.771Z,1000.6
2018-08-13T03:38:23.541Z,1000.6
2018-08-13T03:39:25.644Z,1000.6
2018-08-13T03:40:27.730Z,1000.6
2018-08-13T03:41:29.834Z,1000.6
2018-08-13T03:42:31.929Z,1000.6
2018-08-13T03:43:34.028Z,1000.6
2018-08-13T03:44:36.109Z,1000.6
2018-08-13T03:45:38.207Z,1000.6
2018-08-13T03:46:40.301Z,1000.5
2018-08-13T03:47:42.399Z,1000.5
2018-08-13T03:48:44.479Z,1000.6
2018-08-13T03:49:46.584Z,1000.6
2018-08-13T03:50:48.970Z,1000.6
2018-08-13T03:51:51.052Z,1000.6
2018-08-13T03:52:53.541Z,1000.6
2018-08-13T03:53:55.682Z,1000.6
2018-08-13T03:54:57.735Z,1000.5
2018-08-13T03:55:59.837Z,1000.6
2018-08-13T03:57:01.930Z,1000.5
2018-08-13T03:58:04.011Z,1000.6
2018-08-13T03:59:06.106Z,1000.6
2018-08-13T04:00:08.206Z,1000.6
2018-08-13T04:01:10.287Z,1000.6
2018-08-13T04:02:12.675Z,1000.5
2018-08-13T04:03:14.775Z,1000.5
2018-08-13T04:04:16.864Z,1000.5
2018-08-13T04:05:18.966Z,1000.5
2018-08-13T04:06:21.056Z,1000.5
2018-08-13T04:07:23.149Z,1000.5
2018-08-13T04:08:25.236Z,1000.5
2018-08-13T04:09:27.726Z,1000.5
2018-08-13T04:10:30.099Z,1000.5
2018-08-13T04:11:32.190Z,1000.5
2018-08-13T04:12:34.292Z,1000.5
2018-08-13T04:13:36.372Z,1000.5
2018-08-13T04:14:38.474Z,1000.5
2018-08-13T04:15:40.571Z,1000.5
2018-08-13T04:16:42.670Z,1000.5
2018-08-13T04:17:44.754Z,1000.5
2018-08-13T04:18:46.855Z,1000.5
2018-08-13T04:19:48.945Z,1000.5
2018-08-13T04:20:51.034Z,1000.5
2018-08-13T04:21:53.138Z,1000.5
2018-08-13T04:22:55.228Z,1000.5
2018-08-13T04:23:57.321Z,1000.4
2018-08-13T04:24:59.407Z,1000.4
2018-08-13T04:26:01.797Z,1000.4
2018-08-13T04:27:03.899Z,1000.4
2018-08-13T04:28:05.988Z,1000.3
2018-08-13T04:29:08.377Z,1000.4
2018-08-13T04:30:10.469Z,1000.4
2018-08-13T04:31:12.555Z,1000.4
2018-08-13T04:32:14.653Z,1000.4
2018-08-13T04:33:16.752Z,1000.3
2018-08-13T04:34:18.836Z,1000.3
2018-08-13T04:35:20.933Z,1000.3
2018-08-13T04:36:23.319Z,1000.3
2018-08-13T04:37:25.692Z,1000.3
2018-08-13T04:38:27.803Z,1000.3
2018-08-13T04:39:30.286Z,1000.3
2018-08-13T04:40:32.382Z,1000.3
2018-08-13T04:41:34.471Z,1000.3
2018-08-13T04:42:36.577Z,1000.3
2018-08-13T04:43:38.660Z,1000.3
2018-08-13T04:44:40.751Z,1000.3
2018-08-13T04:45:42.852Z,1000.3
2018-08-13T04:46:44.950Z,1000.3
2018-08-13T04:47:47.055Z,1000.3
2018-08-13T04:48:49.148Z,1000.3
2018-08-13T04:49:51.252Z,1000.3
2018-08-13T04:50:53.340Z,1000.3
2018-08-13T04:51:55.441Z,1000.3
2018-08-13T04:52:57.535Z,1000.3
2018-08-13T04:53:59.622Z,1000.3
2018-08-13T04:55:01.732Z,1000.3
2018-08-13T04:56:04.114Z,1000.3
2018-08-13T04:57:06.207Z,1000.3
2018-08-13T04:58:08.305Z,1000.3
2018-08-13T04:59:10.400Z,1000.3
2018-08-13T05:00:12.490Z,1000.3
2018-08-13T05:01:15.172Z,1000.3
2018-08-13T05:02:17.276Z,1000.3
2018-08-13T05:03:19.660Z,1000.3
2018-08-13T05:04:21.745Z,1000.3
2018-08-13T05:05:23.842Z,1000.3
2018-08-13T05:06:25.947Z,1000.3
2018-08-13T05:07:28.606Z,1000.3
2018-08-13T05:08:31.020Z,1000.3
2018-08-13T05:09:33.128Z,1000.2
2018-08-13T05:10:35.212Z,1000.3
2018-08-13T05:11:37.320Z,1000.3
2018-08-13T05:12:39.407Z,1000.2
2018-08-13T05:13:41.898Z,1000.2
2018-08-13T05:14:43.979Z,1000.2
2018-08-13T05:15:46.394Z,1000.2
2018-08-13T05:16:48.486Z,1000.2
2018-08-13T05:17:50.578Z,1000.2
2018-08-13T05:18:52.680Z,1000.2
2018-08-13T05:19:54.764Z,1000.2
2018-08-13T05:20:56.866Z,1000.3
2018-08-13T05:21:58.963Z,1000.3
2018-08-13T05:23:01.062Z,1000.3
2018-08-13T05:24:03.146Z,1000.3
2018-08-13T05:25:05.251Z,1000.3
2018-08-13T05:26:07.628Z,1000.3
2018-08-13T05:27:10.009Z,1000.3
2018-08-13T05:28:12.114Z,1000.3
2018-08-13T05:29:14.201Z,1000.3
2018-08-13T05:30:16.352Z,1000.3
2018-08-13T05:31:18.409Z,1000.3
2018-08-13T05:32:20.498Z,1000.3
2018-08-13T05:33:22.589Z,1000.3
2018-08-13T05:34:25.078Z,1000.3
2018-08-13T05:35:27.450Z,1000.3
2018-08-13T05:36:29.543Z,1000.3
2018-08-13T05:37:31.653Z,1000.3
2018-08-13T05:38:33.746Z,1000.3
2018-08-13T05:39:36.426Z,1000.4
2018-08-13T05:40:38.536Z,1000.4
2018-08-13T05:41:40.623Z,1000.4
2018-08-13T05:42:43.105Z,1000.4
2018-08-13T05:43:45.203Z,1000.4
2018-08-13T05:44:47.293Z,1000.4
2018-08-13T05:45:49.988Z,1000.4
2018-08-13T05:46:52.478Z,1000.4
2018-08-13T05:47:54.881Z,1000.5
2018-08-13T05:48:56.966Z,1000.5
2018-08-13T05:49:59.067Z,1000.5
2018-08-13T05:51:01.165Z,1000.4
2018-08-13T05:52:03.253Z,1000.4
2018-08-13T05:53:05.650Z,1000.4
2018-08-13T05:54:07.731Z,1000.4
2018-08-13T05:55:09.824Z,1000.3
2018-08-13T05:56:12.312Z,1000.3
2018-08-13T05:57:14.417Z,1000.3
2018-08-13T05:58:16.498Z,1000.3
2018-08-13T05:59:18.596Z,1000.3
2018-08-13T06:00:20.693Z,1000.4
2018-08-13T06:01:22.776Z,1000.3
2018-08-13T06:02:24.879Z,1000.3
2018-08-13T06:03:27.359Z,1000.3
2018-08-13T06:04:29.448Z,1000.3
2018-08-13T06:05:31.860Z,1000.3
2018-08-13T06:06:33.955Z,1000.3
2018-08-13T06:07:36.049Z,1000.3
2018-08-13T06:08:38.149Z,1000.3
2018-08-13T06:09:40.247Z,1000.3
2018-08-13T06:10:42.331Z,1000.3
2018-08-13T06:11:44.511Z,1000.3
2018-08-13T06:12:46.942Z,1000.2
2018-08-13T06:13:49.026Z,1000.2
2018-08-13T06:14:51.134Z,1000.3
2018-08-13T06:15:53.618Z,1000.2
2018-08-13T06:16:55.723Z,1000.3
2018-08-13T06:17:58.269Z,1000.2
2018-08-13T06:19:00.295Z,1000.2
2018-08-13T06:20:02.389Z,1000.2
2018-08-13T06:21:04.497Z,1000.2
2018-08-13T06:22:06.579Z,1000.2
2018-08-13T06:23:09.128Z,1000.2
2018-08-13T06:24:11.535Z,1000.2
2018-08-13T06:25:14.240Z,1000.2
2018-08-13T06:26:16.665Z,1000.2
2018-08-13T06:27:18.752Z,1000.2
2018-08-13T06:28:20.847Z,1000.2
2018-08-13T06:29:22.935Z,1000.3
2018-08-13T06:30:25.334Z,1000.3
2018-08-13T06:31:27.422Z,1000.3
2018-08-13T06:32:29.526Z,1000.3
2018-08-13T06:33:31.627Z,1000.3
2018-08-13T06:34:33.787Z,1000.3
2018-08-13T06:35:35.869Z,1000.3
2018-08-13T06:36:37.966Z,1000.3
2018-08-13T06:37:40.055Z,1000.3
2018-08-13T06:38:42.152Z,1000.3
2018-08-13T06:39:44.256Z,1000.3
2018-08-13T06:40:46.662Z,1000.3
2018-08-13T06:41:48.761Z,1000.3
2018-08-13T06:42:50.859Z,1000.3
2018-08-13T06:43:52.942Z,1000.3
2018-08-13T06:44:55.044Z,1000.3
2018-08-13T06:45:57.142Z,1000.2
2018-08-13T06:46:59.255Z,1000.2
2018-08-13T06:48:01.705Z,1000.1
2018-08-13T06:49:04.102Z,1000.1
2018-08-13T06:50:06.883Z,1000.1
2018-08-13T06:51:09.282Z,1000
2018-08-13T06:52:11.383Z,1000.1
2018-08-13T06:53:13.477Z,1000.1
2018-08-13T06:54:15.854Z,1000.1
2018-08-13T06:55:17.948Z,1000.1
2018-08-13T06:56:20.054Z,1000.1
2018-08-13T06:57:22.154Z,1000
2018-08-13T06:58:24.245Z,1000.1
2018-08-13T06:59:26.356Z,1000.1
2018-08-13T07:00:28.445Z,1000.1
2018-08-13T07:01:30.545Z,1000.1
2018-08-13T07:02:32.637Z,1000.1
2018-08-13T07:03:34.746Z,1000.1
2018-08-13T07:04:36.880Z,1000.1
2018-08-13T07:05:38.934Z,1000.1
2018-08-13T07:06:41.323Z,1000.2
2018-08-13T07:07:43.406Z,1000.2
2018-08-13T07:08:45.513Z,1000.2
2018-08-13T07:09:47.605Z,1000.2
2018-08-13T07:10:49.696Z,1000.3
2018-08-13T07:11:51.793Z,1000.2
2018-08-13T07:12:54.185Z,1000.2
2018-08-13T07:13:56.277Z,1000.2
2018-08-13T07:14:58.777Z,1000.2
2018-08-13T07:16:00.880Z,1000.2
2018-08-13T07:17:02.966Z,1000.2
2018-08-13T07:18:05.067Z,1000.2
2018-08-13T07:19:07.175Z,1000.1
2018-08-13T07:20:09.263Z,1000.1
2018-08-13T07:21:11.755Z,1000.1
2018-08-13T07:22:14.314Z,1000
2018-08-13T07:23:16.767Z,1000
2018-08-13T07:24:19.164Z,1000
2018-08-13T07:25:21.255Z,1000
2018-08-13T07:26:23.350Z,1000
2018-08-13T07:27:25.442Z,1000.1
2018-08-13T07:28:27.558Z,1000.1
2018-08-13T07:29:29.645Z,1000
2018-08-13T07:30:31.745Z,1000
2018-08-13T07:31:34.142Z,1000
2018-08-13T07:32:36.240Z,1000
2018-08-13T07:33:38.380Z,1000
2018-08-13T07:34:40.862Z,1000
2018-08-13T07:35:42.952Z,1000
2018-08-13T07:36:45.350Z,1000
2018-08-13T07:37:47.730Z,1000
2018-08-13T07:38:50.184Z,999.9
2018-08-13T07:39:52.256Z,999.9
2018-08-13T07:40:54.339Z,1000
2018-08-13T07:41:56.456Z,1000
2018-08-13T07:42:58.567Z,999.9
2018-08-13T07:44:00.664Z,999.9
2018-08-13T07:45:03.058Z,999.9
2018-08-13T07:46:05.553Z,999.9
2018-08-13T07:47:07.649Z,999.9
2018-08-13T07:48:09.756Z,999.9
2018-08-13T07:49:11.861Z,999.9
2018-08-13T07:50:13.950Z,1000
2018-08-13T07:51:16.053Z,1000
2018-08-13T07:52:18.164Z,1000
2018-08-13T07:53:20.255Z,1000
2018-08-13T07:54:22.366Z,1000
2018-08-13T07:55:24.791Z,999.9
2018-08-13T07:56:26.885Z,999.9
2018-08-13T07:57:28.994Z,1000
2018-08-13T07:58:31.089Z,999.9
2018-08-13T07:59:33.477Z,999.9
2018-08-13T08:00:35.878Z,999.9
2018-08-13T08:01:37.991Z,999.9
2018-08-13T08:02:40.083Z,999.9
2018-08-13T08:03:42.480Z,999.8
2018-08-13T08:04:44.880Z,999.8
2018-08-13T08:05:46.964Z,999.8
2018-08-13T08:06:49.077Z,999.8
2018-08-13T08:07:51.185Z,999.8
2018-08-13T08:08:53.301Z,999.8
2018-08-13T08:09:55.394Z,999.8
2018-08-13T08:10:57.501Z,999.9
2018-08-13T08:11:59.886Z,999.9
2018-08-13T08:13:01.984Z,999.8
2018-08-13T08:14:04.405Z,999.9
2018-08-13T08:15:06.506Z,999.8
2018-08-13T08:16:08.608Z,999.8
2018-08-13T08:17:11.081Z,999.8
2018-08-13T08:18:13.470Z,999.8
2018-08-13T08:19:15.566Z,999.8
2018-08-13T08:20:17.676Z,999.8
2018-08-13T08:21:19.777Z,999.7
2018-08-13T08:22:21.874Z,999.8
2018-08-13T08:23:23.989Z,999.8
2018-08-13T08:24:26.091Z,999.7
2018-08-13T08:25:28.185Z,999.8
2018-08-13T08:26:30.591Z,999.7
2018-08-13T08:27:32.685Z,999.7
2018-08-13T08:28:34.789Z,999.7
2018-08-13T08:29:36.898Z,999.7
2018-08-13T08:30:38.990Z,999.7
2018-08-13T08:31:41.103Z,999.7
2018-08-13T08:32:43.496Z,999.7
2018-08-13T08:33:45.612Z,999.7
2018-08-13T08:34:48.048Z,999.7
2018-08-13T08:35:50.131Z,999.7
2018-08-13T08:36:52.235Z,999.7
2018-08-13T08:37:54.719Z,999.8
2018-08-13T08:38:57.221Z,999.8
2018-08-13T08:39:59.607Z,999.8
2018-08-13T08:41:01.999Z,999.8
2018-08-13T08:42:04.095Z,999.8
2018-08-13T08:43:06.206Z,999.8
2018-08-13T08:44:08.305Z,999.8
2018-08-13T08:45:11.091Z,999.8
2018-08-13T08:46:13.201Z,999.8
2018-08-13T08:47:15.687Z,999.8
2018-08-13T08:48:17.796Z,999.8
2018-08-13T08:49:19.904Z,999.8
2018-08-13T08:50:22.024Z,999.7
2018-08-13T08:51:24.510Z,999.8
2018-08-13T08:52:26.604Z,999.7
2018-08-13T08:53:28.730Z,999.7
2018-08-13T08:54:31.135Z,999.7
2018-08-13T08:55:33.240Z,999.7
2018-08-13T08:56:35.643Z,999.7
2018-08-13T08:57:38.032Z,999.7
2018-08-13T08:58:40.513Z,999.7
2018-08-13T08:59:42.627Z,999.7
2018-08-13T09:00:44.740Z,999.7
2018-08-13T09:01:46.831Z,999.7
2018-08-13T09:02:48.948Z,999.7
2018-08-13T09:03:51.040Z,999.7
2018-08-13T09:04:53.158Z,999.7
2018-08-13T09:05:55.278Z,999.6
2018-08-13T09:06:57.692Z,999.7
2018-08-13T09:08:00.467Z,999.6
2018-08-13T09:09:02.584Z,999.6
2018-08-13T09:10:04.692Z,999.6
2018-08-13T09:11:06.797Z,999.6
2018-08-13T09:12:08.918Z,999.6
2018-08-13T09:13:11.018Z,999.5
2018-08-13T09:14:13.214Z,999.5
2018-08-13T09:15:15.241Z,999.6
2018-08-13T09:16:17.369Z,999.6
2018-08-13T09:17:19.482Z,999.6
2018-08-13T09:18:21.883Z,999.6
2018-08-13T09:19:24.285Z,999.6
2018-08-13T09:20:26.376Z,999.6
2018-08-13T09:21:28.497Z,999.6
2018-08-13T09:22:30.609Z,999.6
2018-08-13T09:23:32.706Z,999.6
2018-08-13T09:24:34.819Z,999.6
2018-08-13T09:25:36.972Z,999.6
2018-08-13T09:26:39.053Z,999.6
2018-08-13T09:27:41.155Z,999.6
2018-08-13T09:28:43.267Z,999.6
2018-08-13T09:29:45.385Z,999.6
2018-08-13T09:30:47.498Z,999.6
2018-08-13T09:31:49.615Z,999.6
2018-08-13T09:32:51.745Z,999.6
2018-08-13T09:33:53.853Z,999.5
2018-08-13T09:34:55.958Z,999.5
2018-08-13T09:35:58.370Z,999.6
2018-08-13T09:37:00.469Z,999.5
2018-08-13T09:38:02.584Z,999.5
2018-08-13T09:39:04.694Z,999.5
2018-08-13T09:40:06.812Z,999.5
2018-08-13T09:41:08.914Z,999.4
2018-08-13T09:42:11.033Z,999.5
2018-08-13T09:43:13.148Z,999.4
2018-08-13T09:44:15.257Z,999.4
2018-08-13T09:45:17.773Z,999.4
2018-08-13T09:46:20.161Z,999.5
2018-08-13T09:47:22.272Z,999.5
2018-08-13T09:48:24.380Z,999.5
2018-08-13T09:49:26.504Z,999.5
2018-08-13T09:50:28.998Z,999.4
2018-08-13T09:51:31.154Z,999.5
2018-08-13T09:52:33.329Z,999.4
2018-08-13T09:53:36.152Z,999.4
2018-08-13T09:54:38.275Z,999.4
2018-08-13T09:55:40.388Z,999.3
2018-08-13T09:56:42.498Z,999.4
2018-08-13T09:57:45.084Z,999.4
2018-08-13T09:58:47.497Z,999.4
2018-08-13T09:59:49.614Z,999.4
2018-08-13T10:00:51.741Z,999.4
2018-08-13T10:01:54.312Z,999.3
2018-08-13T10:02:56.411Z,999.3
2018-08-13T10:03:58.830Z,999.3
2018-08-13T10:05:00.938Z,999.2
2018-08-13T10:06:03.072Z,999.2
2018-08-13T10:07:05.571Z,999.3
2018-08-13T10:08:07.694Z,999.3
2018-08-13T10:09:09.895Z,999.2
2018-08-13T10:10:12.342Z,999.2
2018-08-13T10:11:14.849Z,999.2
2018-08-13T10:12:17.641Z,999.2
2018-08-13T10:13:19.763Z,999.2
2018-08-13T10:14:22.154Z,999.1
2018-08-13T10:15:24.277Z,999.1
2018-08-13T10:16:26.392Z,999
2018-08-13T10:17:28.545Z,999
2018-08-13T10:18:30.632Z,999
2018-08-13T10:19:32.738Z,999
2018-08-13T10:20:34.859Z,999
2018-08-13T10:21:37.545Z,999
2018-08-13T10:22:39.674Z,999
2018-08-13T10:23:42.067Z,998.9
2018-08-13T10:24:44.183Z,999
2018-08-13T10:25:46.589Z,999
2018-08-13T10:26:48.696Z,999
2018-08-13T10:27:50.815Z,999
2018-08-13T10:28:53.220Z,999
2018-08-13T10:29:55.331Z,998.9
2018-08-13T10:30:57.768Z,999
2018-08-13T10:31:59.894Z,999
2018-08-13T10:33:02.001Z,998.9
2018-08-13T10:34:04.125Z,999
2018-08-13T10:35:06.552Z,999
2018-08-13T10:36:08.656Z,998.9
2018-08-13T10:37:10.774Z,998.9
2018-08-13T10:38:12.897Z,999
2018-08-13T10:39:15.000Z,998.9
2018-08-13T10:40:17.422Z,998.8
2018-08-13T10:41:19.861Z,999
2018-08-13T10:42:22.256Z,998.9
2018-08-13T10:43:24.437Z,998.9
2018-08-13T10:44:26.500Z,999
2018-08-13T10:45:28.615Z,998.9
2018-08-13T10:46:30.721Z,999
2018-08-13T10:47:32.848Z,998.9
2018-08-13T10:48:34.960Z,998.9
2018-08-13T10:49:37.505Z,998.9
2018-08-13T10:50:39.586Z,998.9
2018-08-13T10:51:41.694Z,998.9
2018-08-13T10:52:43.821Z,998.8
2018-08-13T10:53:45.941Z,998.8
2018-08-13T10:54:48.061Z,998.8
2018-08-13T10:55:50.168Z,998.8
2018-08-13T10:56:52.287Z,998.8
2018-08-13T10:57:54.397Z,998.8
2018-08-13T10:58:56.850Z,998.8
2018-08-13T10:59:58.983Z,998.8
2018-08-13T11:01:01.487Z,998.7
2018-08-13T11:02:03.944Z,998.7
2018-08-13T11:03:06.096Z,998.7
2018-08-13T11:04:08.189Z,998.7
2018-08-13T11:05:10.296Z,998.8
2018-08-13T11:06:12.416Z,998.7
2018-08-13T11:07:14.522Z,998.7
2018-08-13T11:08:16.644Z,998.7
2018-08-13T11:09:18.767Z,998.7
2018-08-13T11:10:20.904Z,998.7
2018-08-13T11:11:23.904Z,998.7
2018-08-13T11:12:26.429Z,998.7
2018-08-13T11:13:28.593Z,998.7
2018-08-13T11:14:31.014Z,998.7
2018-08-13T11:15:33.134Z,998.7
2018-08-13T11:16:35.240Z,998.6
2018-08-13T11:17:37.360Z,998.6
2018-08-13T11:18:39.762Z,998.6
2018-08-13T11:19:41.879Z,998.7
2018-08-13T11:20:43.999Z,998.5
2018-08-13T11:21:46.151Z,998.5
2018-08-13T11:22:48.710Z,998.5
2018-08-13T11:23:50.829Z,998.5
2018-08-13T11:24:53.237Z,998.5
2018-08-13T11:25:55.360Z,998.4
2018-08-13T11:26:57.476Z,998.5
2018-08-13T11:27:59.598Z,998.5
2018-08-13T11:29:02.095Z,998.5
2018-08-13T11:30:04.528Z,998.4
2018-08-13T11:31:06.667Z,998.5
2018-08-13T11:32:08.750Z,998.6
2018-08-13T11:33:11.270Z,998.6
2018-08-13T11:34:13.373Z,998.5
2018-08-13T11:35:15.493Z,998.5
2018-08-13T11:36:17.618Z,998.5
2018-08-13T11:37:19.736Z,998.6
2018-08-13T11:38:21.840Z,998.5
2018-08-13T11:39:23.958Z,998.5
2018-08-13T11:40:26.068Z,998.5
2018-08-13T11:41:28.181Z,998.5
2018-08-13T11:42:30.315Z,998.3
2018-08-13T11:43:32.821Z,998.4
2018-08-13T11:44:34.934Z,998.4
2018-08-13T11:45:37.059Z,998.4
2018-08-13T11:46:39.169Z,998.4
2018-08-13T11:47:41.287Z,998.4
2018-08-13T11:48:43.405Z,998.4
2018-08-13T11:49:45.506Z,998.4
2018-08-13T11:50:47.625Z,998.4
2018-08-13T11:51:49.736Z,998.3
2018-08-13T11:52:52.255Z,998.3
2018-08-13T11:53:54.360Z,998.3
2018-08-13T11:54:56.483Z,998.3
2018-08-13T11:55:58.596Z,998.3
2018-08-13T11:57:00.703Z,998.3
2018-08-13T11:58:03.127Z,998.3
2018-08-13T11:59:05.256Z,998.4
2018-08-13T12:00:07.360Z,998.3
2018-08-13T12:01:09.495Z,998.3
2018-08-13T12:02:11.664Z,998.3
2018-08-13T12:03:13.706Z,998.3
2018-08-13T12:04:15.815Z,998.4
2018-08-13T12:05:17.929Z,998.3
2018-08-13T12:06:20.349Z,998.2
2018-08-13T12:07:22.458Z,998.2
2018-08-13T12:08:24.870Z,998.2
2018-08-13T12:09:26.992Z,998.2
2018-08-13T12:10:29.110Z,998.2
2018-08-13T12:11:31.505Z,998.3
2018-08-13T12:12:33.629Z,998.3
2018-08-13T12:13:35.737Z,998.2
2018-08-13T12:14:37.852Z,998.1
2018-08-13T12:15:40.259Z,998.2
2018-08-13T12:16:42.379Z,998.2
2018-08-13T12:17:44.780Z,998.1
2018-08-13T12:18:46.906Z,998.2
2018-08-13T12:19:49.308Z,998.1
2018-08-13T12:20:51.424Z,998.1
2018-08-13T12:21:53.553Z,998.2
2018-08-13T12:22:55.660Z,998.1
2018-08-13T12:23:57.780Z,998.1
2018-08-13T12:25:00.293Z,998.1
2018-08-13T12:26:02.417Z,998
2018-08-13T12:27:04.527Z,998
2018-08-13T12:28:06.937Z,998
2018-08-13T12:29:09.341Z,998
2018-08-13T12:30:11.759Z,997.9
2018-08-13T12:31:13.890Z,998
2018-08-13T12:32:15.999Z,998
2018-08-13T12:33:18.116Z,998
2018-08-13T12:34:20.236Z,998
2018-08-13T12:35:22.670Z,997.9
2018-08-13T12:36:25.749Z,998.1
2018-08-13T12:37:27.861Z,998
2018-08-13T12:38:30.363Z,998
2018-08-13T12:39:33.101Z,997.9
2018-08-13T12:40:35.203Z,997.9
2018-08-13T12:41:37.709Z,998
2018-08-13T12:42:39.841Z,998
2018-08-13T12:43:41.957Z,997.9
2018-08-13T12:44:44.071Z,997.9
2018-08-13T12:45:46.482Z,997.9
2018-08-13T12:46:48.590Z,997.8
2018-08-13T12:47:50.994Z,997.9
2018-08-13T12:48:53.129Z,997.9
2018-08-13T12:49:55.247Z,997.8
2018-08-13T12:50:57.697Z,997.9
2018-08-13T12:51:59.771Z,998
2018-08-13T12:53:02.274Z,997.8
2018-08-13T12:54:04.383Z,997.8
2018-08-13T12:55:06.511Z,997.8
2018-08-13T12:56:08.614Z,997.8
2018-08-13T12:57:10.829Z,997.8
2018-08-13T12:58:12.851Z,997.8
2018-08-13T12:59:14.989Z,997.8
2018-08-13T13:00:17.654Z,997.7
2018-08-13T13:01:20.389Z,997.8
2018-08-13T13:02:22.503Z,997.8
2018-08-13T13:03:24.609Z,997.7
2018-08-13T13:04:27.056Z,997.7
2018-08-13T13:05:29.157Z,997.7
2018-08-13T13:06:31.270Z,997.7
2018-08-13T13:07:33.378Z,997.6
2018-08-13T13:08:35.502Z,997.6
2018-08-13T13:09:37.609Z,997.6
2018-08-13T13:10:39.730Z,997.6